Latest Weather Observations for Grafton Airport

IDN60801

Issued at 2:02 pm EDT Tuesday 31 March 2015 (issued every 30 minutes, with the page automatically refreshed every 10 minutes)

About weather observations | Map of weather stations | Latest weather observations for NSW | Other Formats
Station Details ID: 058161 Name: GRAFTON AIRPORT AWS Lat: -29.76 Lon: 153.03 Height: 25.09 m
Data from the previous 72 hours. | See also: Recent months for locations in New South Wales
Date/Time
EDT
Temp
°C
App
Temp
°C
Dew
Point
Rel
Hum
%
Delta-T
°C
Wind Press
QNH
hPa
Press
MSL
hPa
Rain
since 9 am
mm
Dir
 
Spd
km/h
Gust
km/h
Spd
kts
Gust
kts
31/02:00pm 22.6 24.4 19.6 83 1.9 SSW 9 13 5 7 1022.8 1022.7 2.2
31/01:30pm 22.2 24.1 19.7 86 1.6 SE 9 13 5 7 1023.3 1023.2 2.2
31/01:00pm 20.8 23.6 18.9 89 1.2 NW 2 7 1 4 1023.8 1023.7 1.6
31/12:30pm 20.6 22.4 18.7 89 1.2 NNE 7 13 4 7 1024.3 1024.2 1.0
31/12:00pm 21.0 22.5 18.9 88 1.3 SSW 9 13 5 7 1024.5 1024.4 1.0
31/11:50am 21.7 24.6 19.8 89 1.2 WSW 4 9 2 5 1024.5 1024.4 1.0
31/11:34am 21.6 23.8 19.2 86 1.5 NW 6 9 3 5 1024.4 1024.3 0.8
31/11:30am 21.7 23.9 19.1 85 1.6 NW 6 9 3 5 1024.4 1024.3 0.4
31/11:00am 22.6 24.6 18.8 79 2.4 SW 6 9 3 5 1024.5 1024.4 0.0
31/10:30am 22.2 24.0 18.4 79 2.4 SW 6 7 3 4 1024.6 1024.5 0.0
31/10:00am 21.8 23.8 19.2 85 1.6 SSW 7 9 4 5 1024.5 1024.4 0.0
31/09:30am 20.5 23.6 18.6 89 1.2 CALM 0 0 0 0 1024.3 1024.2 0.0
31/09:00am 19.8 22.0 19.1 96 0.4 SSW 6 9 3 5 1023.9 1023.8 2.4
31/08:30am 19.1 21.1 18.8 98 0.2 WSW 6 7 3 4 1023.5 1023.4 2.4
31/08:00am 18.9 21.9 18.4 97 0.3 CALM 0 0 0 0 1023.3 1023.2 2.4
31/07:30am 18.8 21.7 18.3 97 0.3 CALM 0 0 0 0 1023.0 1022.9 2.4
31/07:00am 18.7 20.5 18.2 97 0.3 SSW 6 7 3 4 1022.7 1022.6 2.4
31/06:30am 18.8 20.4 18.3 97 0.3 SSW 7 9 4 5 1022.6 1022.5 2.4
31/06:00am 18.7 20.0 18.4 98 0.2 SSW 9 11 5 6 1022.6 1022.5 2.4
31/05:30am 18.8 21.0 18.3 97 0.3 SW 4 7 2 4 1022.5 1022.4 2.4
31/05:00am 18.8 21.3 18.1 96 0.4 SSW 2 7 1 4 1022.4 1022.3 2.0
31/04:30am 18.9 21.4 18.2 96 0.4 SSW 2 7 1 4 1022.4 1022.3 1.8
31/04:00am 18.9 20.4 18.1 95 0.5 SSW 7 9 4 5 1022.5 1022.4 1.8
31/03:30am 18.9 20.7 18.2 96 0.4 WSW 6 7 3 4 1022.8 1022.7 1.8
31/03:00am 19.0 20.8 18.3 96 0.4 SSW 6 7 3 4 1022.9 1022.8 1.8
31/02:30am 19.1 20.8 18.4 96 0.4 SSW 7 9 4 5 1023.0 1022.9 1.8
31/02:00am 19.2 21.1 18.5 96 0.4 SW 6 7 3 4 1023.3 1023.2 1.8
31/01:30am 19.2 20.9 18.5 96 0.4 SSW 7 11 4 6 1023.4 1023.3 1.6
31/01:00am 19.3 20.7 18.6 96 0.4 SSW 9 11 5 6 1023.5 1023.4 1.6
31/12:30am 19.4 21.5 18.9 97 0.3 S 6 9 3 5 1023.8 1023.7 1.6
31/12:00am 19.3 20.3 18.6 96 0.4 SSW 11 15 6 8 1023.9 1023.8 1.6
 
Date/Time
EDT
Temp
°C
App
Temp
°C
Dew
Point
Rel
Hum
%
Delta-T
°C
Wind Press
QNH
hPa
Press
MSL
hPa
Rain
since 9 am
mm
Dir
 
Spd
km/h
Gust
km/h
Spd
kts
Gust
kts
30/11:30pm 19.4 20.5 18.9 97 0.3 SSW 11 13 6 7 1023.9 1023.8 1.6
30/11:00pm 19.5 21.3 18.8 96 0.4 SSW 7 11 4 6 1024.0 1023.9 1.4
30/10:30pm 19.7 21.1 18.7 94 0.6 SSW 9 13 5 7 1024.2 1024.1 1.2
30/09:30pm 21.8 22.9 18.0 79 2.4 SSW 9 13 5 7 1024.0 1023.9 0.0
30/09:00pm 22.5 23.8 17.2 72 3.3 SW 6 9 3 5 1023.5 1023.4 0.0
30/08:30pm 22.6 23.4 17.3 72 3.3 NE 9 11 5 6 1023.1 1023.0 0.0
30/08:00pm 23.0 24.3 17.2 70 3.6 ENE 6 9 3 5 1023.0 1022.9 0.0
30/07:30pm 23.0 23.9 17.5 71 3.4 NE 9 13 5 7 1022.5 1022.4 0.0
30/07:00pm 23.3 24.2 17.5 70 3.6 NE 9 11 5 6 1022.2 1022.1 0.0
30/06:30pm 23.8 24.4 17.8 69 3.7 NE 11 17 6 9 1021.8 1021.7 0.0
30/06:00pm 24.3 25.0 18.0 68 3.9 NE 11 13 6 7 1021.5 1021.4 0.0
30/05:30pm 24.8 25.1 18.0 66 4.3 ENE 13 20 7 11 1021.1 1021.0 0.0
30/05:00pm 26.3 26.0 17.4 58 5.6 NNE 15 22 8 12 1020.8 1020.7 0.0
30/04:30pm 26.4 26.0 17.2 57 5.7 NNE 15 19 8 10 1020.6 1020.5 0.0
30/04:00pm 26.3 26.8 16.5 54 6.0 N 9 15 5 8 1020.6 1020.5 0.0
30/03:30pm 26.3 27.1 17.4 58 5.6 NW 9 15 5 8 1020.7 1020.6 0.0
30/03:00pm 26.1 26.9 17.2 58 5.5 NNW 9 15 5 8 1021.0 1020.9 0.0
30/02:30pm 26.5 26.6 16.4 53 6.2 N 11 15 6 8 1021.3 1021.2 0.0
30/02:00pm 26.3 26.6 17.1 57 5.7 N 11 17 6 9 1021.6 1021.5 0.0
30/01:30pm 25.3 25.6 18.0 64 4.6 N 13 19 7 10 1022.1 1022.0 0.0
30/01:00pm 25.6 25.1 17.0 59 5.3 N 15 20 8 11 1022.3 1022.2 0.0
30/12:30pm 25.7 26.8 18.1 63 4.8 N 9 15 5 8 1022.7 1022.6 0.0
30/12:00pm 24.6 25.8 18.3 68 4.0 NNW 9 13 5 7 1023.3 1023.2 0.0
30/11:30am 23.6 24.9 17.6 69 3.7 NNE 7 11 4 6 1023.7 1023.6 0.0
30/11:00am 23.9 25.8 18.5 72 3.4 N 6 9 3 5 1024.0 1023.9 0.0
30/10:30am 23.0 24.5 18.1 74 3.1 NNW 7 11 4 6 1024.3 1024.2 0.0
30/10:00am 21.6 24.5 18.2 81 2.1 CALM 0 6 0 3 1024.4 1024.3 0.0
30/09:30am 20.9 23.8 18.1 84 1.7 CALM 0 4 0 2 1024.2 1024.1 0.0
30/09:00am 19.9 22.6 17.7 87 1.3 CALM 0 6 0 3 1024.3 1024.2 0.0
30/08:30am 18.6 21.2 17.6 94 0.6 CALM 0 0 0 0 1023.8 1023.7 0.0
30/08:00am 17.7 20.1 17.1 96 0.4 CALM 0 0 0 0 1023.5 1023.4 0.0
30/07:30am 17.0 19.3 16.7 98 0.2 CALM 0 0 0 0 1023.0 1022.9 0.0
30/07:25am 16.7 18.9 16.4 98 0.2 CALM 0 0 0 0 1023.0 1022.9 0.0
30/07:00am 16.4 18.4 15.9 97 0.3 CALM 0 0 0 0 1022.9 1022.8 0.0
30/06:37am 16.3 18.1 15.5 95 0.5 CALM 0 6 0 3 1022.8 1022.7 0.0
30/06:30am 16.3 17.7 15.3 94 0.6 SSE 2 6 1 3 1022.6 1022.5 0.0
30/06:00am 16.9 19.1 16.4 97 0.3 CALM 0 0 0 0 1022.5 1022.4 0.0
30/05:30am 16.9 18.9 16.1 95 0.5 CALM 0 6 0 3 1022.1 1022.0 0.0
30/05:00am 17.2 19.1 16.6 96 0.4 SSW 2 6 1 3 1022.0 1021.9 0.0
30/04:30am 17.3 19.5 16.5 95 0.5 CALM 0 0 0 0 1021.9 1021.8 0.0
30/04:00am 17.5 19.0 16.7 95 0.5 SSW 4 6 2 3 1022.1 1022.0 0.0
30/03:30am 17.7 20.1 16.9 95 0.5 CALM 0 0 0 0 1021.9 1021.8 0.0
30/03:00am 17.5 19.7 16.4 93 0.7 CALM 0 0 0 0 1022.1 1022.0 0.0
30/02:30am 18.1 20.5 16.9 93 0.7 CALM 0 0 0 0 1022.1 1022.0 0.0
30/02:00am 18.9 20.4 17.6 92 0.8 SSE 6 7 3 4 1022.5 1022.4 0.0
30/01:30am 18.9 20.1 17.4 91 0.9 S 7 11 4 6 1022.6 1022.5 0.0
30/01:00am 19.1 21.4 17.6 91 0.9 SW 2 7 1 4 1023.0 1022.9 0.0
30/12:30am 19.0 20.9 17.7 92 0.8 SW 4 7 2 4 1023.1 1023.0 0.0
30/12:00am 19.2 20.5 17.5 90 1.0 S 7 7 4 4 1022.9 1022.8 0.0
 
Date/Time
EDT
Temp
°C
App
Temp
°C
Dew
Point
Rel
Hum
%
Delta-T
°C
Wind Press
QNH
hPa
Press
MSL
hPa
Rain
since 9 am
mm
Dir
 
Spd
km/h
Gust
km/h
Spd
kts
Gust
kts
29/11:30pm 19.3 21.7 18.0 92 0.8 SSW 2 9 1 5 1023.1 1023.0 0.0
29/11:00pm 18.8 19.7 17.5 92 0.8 S 9 11 5 6 1023.0 1022.9 0.0
29/10:30pm 19.2 20.9 17.2 88 1.2 SSW 4 9 2 5 1023.2 1023.1 0.0
29/10:00pm 19.8 22.4 17.4 86 1.5 CALM 0 0 0 0 1023.2 1023.1 0.0
29/09:30pm 20.4 22.7 17.6 84 1.7 S 2 7 1 4 1023.1 1023.0 0.0
29/09:00pm 21.1 23.3 17.5 80 2.2 NE 2 6 1 3 1023.0 1022.9 0.0
29/08:30pm 21.2 23.8 17.4 79 2.3 CALM 0 0 0 0 1022.7 1022.6 0.0
29/08:00pm 21.8 23.0 17.4 76 2.7 NNE 7 9 4 5 1022.3 1022.2 0.0
29/07:30pm 22.3 22.8 17.4 74 3.0 NE 11 17 6 9 1021.7 1021.6 0.0
29/07:00pm 23.0 23.5 17.5 71 3.4 NE 11 17 6 9 1021.3 1021.2 0.0
29/06:30pm 23.9 22.8 17.4 67 4.0 NE 19 24 10 13 1021.0 1020.9 0.0
29/06:00pm 24.9 23.8 17.4 63 4.7 NE 19 26 10 14 1020.7 1020.6 0.0
29/05:30pm 26.0 25.4 18.4 63 4.8 NE 19 28 10 15 1020.2 1020.1 0.0
29/05:00pm 26.7 25.7 18.0 59 5.5 NE 20 26 11 14 1020.0 1019.9 0.0
29/04:30pm 26.5 26.1 18.1 60 5.3 NE 17 24 9 13 1020.2 1020.1 0.0
29/04:00pm 28.9 29.5 15.4 44 8.3 N 6 11 3 6 1020.2 1020.1 0.0
29/03:30pm 28.9 29.1 16.8 48 7.6 N 11 17 6 9 1020.5 1020.4 0.0
29/03:00pm 28.1 28.3 15.7 46 7.6 NNW 9 15 5 8 1020.7 1020.6 0.0
29/02:30pm 27.6 28.1 15.6 48 7.3 N 7 13 4 7 1020.9 1020.8 0.0
29/02:00pm 27.1 29.0 16.7 53 6.4 S 2 9 1 5 1021.5 1021.4 0.0
29/01:30pm 27.5 27.6 15.5 48 7.3 NW 9 17 5 9 1021.9 1021.8 0.0
29/01:00pm 27.7 28.3 16.9 51 6.7 NNW 9 22 5 12 1022.4 1022.3 0.0
29/12:30pm 26.7 27.1 16.3 53 6.4 N 9 19 5 10 1022.7 1022.6 0.0
29/12:00pm 26.0 26.2 16.8 57 5.7 NNW 11 17 6 9 1023.0 1022.9 0.0
29/11:30am 25.8 26.7 16.6 56 5.7 WNW 7 11 4 6 1023.6 1023.5 0.0
29/11:00am 25.3 27.0 17.2 61 5.0 WNW 4 11 2 6 1024.0 1023.9 0.0
29/10:30am 25.0 26.3 17.5 63 4.7 WNW 7 11 4 6 1024.1 1024.0 0.0
29/10:00am 23.4 24.4 16.4 64 4.3 SW 6 9 3 5 1024.1 1024.0 0.0
29/09:30am 23.0 24.2 16.8 68 3.8 SW 6 9 3 5 1023.9 1023.8 0.0
29/09:00am 21.4 22.8 16.4 73 3.0 SSW 4 7 2 4 1023.5 1023.4 0.0
29/08:30am 20.0 20.7 16.2 79 2.3 SSW 7 11 4 6 1023.0 1022.9 0.0
29/08:00am 18.3 20.5 16.6 90 1.0 CALM 0 0 0 0 1022.8 1022.7 0.0
29/07:30am 17.7 19.7 16.0 90 1.0 CALM 0 0 0 0 1022.4 1022.3 0.0
29/07:00am 18.2 20.3 16.2 88 1.2 CALM 0 0 0 0 1022.2 1022.1 0.0
29/06:30am 18.2 19.9 16.2 88 1.2 WSW 2 6 1 3 1021.9 1021.8 0.0
29/06:00am 17.6 19.6 15.9 90 1.0 CALM 0 0 0 0 1021.5 1021.4 0.0
29/05:30am 17.9 19.9 15.9 88 1.2 CALM 0 0 0 0 1021.3 1021.2 0.0
29/05:00am 17.4 19.2 15.6 89 1.1 CALM 0 0 0 0 1021.0 1020.9 0.0
29/04:30am 18.2 18.5 15.1 82 1.8 SSW 7 9 4 5 1020.9 1020.8 0.0
29/04:00am 18.3 19.1 16.3 88 1.2 S 7 9 4 5 1021.1 1021.0 0.0
29/03:30am 17.7 17.9 15.7 88 1.2 S 9 9 5 5 1021.1 1021.0 0.0
29/03:00am 18.2 20.1 15.8 86 1.4 CALM 0 0 0 0 1021.2 1021.1 0.0
29/02:30am 18.2 19.4 15.8 86 1.4 N 4 9 2 5 1021.4 1021.3 0.0
29/02:00am 18.5 20.0 15.6 83 1.7 SW 2 6 1 3 1021.6 1021.5 0.0
29/01:30am 18.3 18.8 15.6 84 1.6 SSW 7 11 4 6 1021.6 1021.5 0.0
29/01:00am 18.2 18.6 15.3 83 1.7 SSW 7 9 4 5 1021.8 1021.7 0.0
29/12:30am 18.7 19.0 15.0 79 2.2 SSW 7 9 4 5 1022.0 1021.9 0.0
29/12:00am 19.5 19.4 15.0 75 2.6 SSW 9 11 5 6 1022.2 1022.1 0.0
 
Date/Time
EDT
Temp
°C
App
Temp
°C
Dew
Point
Rel
Hum
%
Delta-T
°C
Wind Press
QNH
hPa
Press
MSL
hPa
Rain
since 9 am
mm
Dir
 
Spd
km/h
Gust
km/h
Spd
kts
Gust
kts
28/11:30pm 20.3 20.6 14.9 71 3.2 SSW 7 9 4 5 1022.7 1022.6 0.0
28/11:00pm 20.1 20.1 15.3 74 2.8 SSW 9 11 5 6 1022.7 1022.6 0.0
28/10:30pm 20.9 21.3 15.2 70 3.4 SW 7 9 4 5 1022.7 1022.6 0.0
28/10:00pm 21.0 21.0 15.1 69 3.5 SSW 9 13 5 7 1022.7 1022.6 0.0
28/09:30pm 21.2 21.6 15.3 69 3.5 SSW 7 11 4 6 1022.6 1022.5 0.0
28/09:00pm 21.3 21.9 15.2 68 3.6 S 6 7 3 4 1022.2 1022.1 0.0
28/08:30pm 21.1 21.7 15.2 69 3.5 SSW 6 7 3 4 1021.8 1021.7 0.0
28/08:00pm 21.1 21.0 15.0 68 3.6 S 9 11 5 6 1021.3 1021.2 0.0
28/07:30pm 21.7 21.9 14.6 64 4.2 SSW 7 9 4 5 1021.3 1021.2 0.0
28/07:00pm 21.9 21.7 14.8 64 4.2 S 9 11 5 6 1020.8 1020.7 0.0
28/06:30pm 22.0 21.2 13.9 60 4.7 SE 11 17 6 9 1020.4 1020.3 0.0
28/06:00pm 22.9 22.1 13.9 57 5.2 SE 11 17 6 9 1020.2 1020.1 0.0
28/05:30pm 24.0 22.5 14.1 54 5.8 SE 15 22 8 12 1019.9 1019.8 0.0
28/05:00pm 24.4 22.4 13.9 52 6.2 SE 17 24 9 13 1019.8 1019.7 0.0
28/04:30pm 24.9 22.6 13.1 48 6.9 ESE 17 24 9 13 1019.6 1019.5 0.0
28/04:00pm 25.6 24.1 14.1 49 6.8 E 15 26 8 14 1019.7 1019.6 0.0
28/03:30pm 25.6 23.9 13.5 47 7.1 E 15 24 8 13 1019.9 1019.8 0.0
28/03:00pm 26.1 24.2 14.2 48 7.1 ESE 17 20 9 11 1020.0 1019.9 0.0
28/02:30pm 26.3 24.3 13.8 46 7.4 E 17 24 9 13 1020.2 1020.1 0.0

Other Formats:

Comma delimited format used in spreadsheet applications
http://www.bom.gov.au/fwo/IDN60801/IDN60801.95570.axf

JavaScript Object Notation format (JSON) in row-major order
http://www.bom.gov.au/fwo/IDN60801/IDN60801.95570.json